sensor_id;sensor_type;location;lat;lon;timestamp;temperature;humidity
21622;DHT22;10973;46.706;12.340;2023-05-10T00:02:20;9.40;99.90
21622;DHT22;10973;46.706;12.340;2023-05-10T00:04:48;9.40;99.90
21622;DHT22;10973;46.706;12.340;2023-05-10T00:07:15;9.40;99.90
21622;DHT22;10973;46.706;12.340;2023-05-10T00:09:42;9.40;99.90
21622;DHT22;10973;46.706;12.340;2023-05-10T00:12:10;9.50;99.90
21622;DHT22;10973;46.706;12.340;2023-05-10T00:14:38;9.40;99.90
21622;DHT22;10973;46.706;12.340;2023-05-10T00:17:05;9.50;99.90
21622;DHT22;10973;46.706;12.340;2023-05-10T00:19:32;9.40;99.90
21622;DHT22;10973;46.706;12.340;2023-05-10T00:22:00;9.40;99.90
21622;DHT22;10973;46.706;12.340;2023-05-10T00:24:27;9.40;99.90
21622;DHT22;10973;46.706;12.340;2023-05-10T00:26:54;9.40;99.90
21622;DHT22;10973;46.706;12.340;2023-05-10T00:29:22;9.40;99.90
21622;DHT22;10973;46.706;12.340;2023-05-10T00:31:49;9.30;99.90
21622;DHT22;10973;46.706;12.340;2023-05-10T00:34:16;9.30;99.90
21622;DHT22;10973;46.706;12.340;2023-05-10T00:36:44;9.40;99.90
21622;DHT22;10973;46.706;12.340;2023-05-10T00:39:11;9.40;99.90
21622;DHT22;10973;46.706;12.340;2023-05-10T00:41:38;9.30;99.90
21622;DHT22;10973;46.706;12.340;2023-05-10T00:44:06;9.30;99.90
21622;DHT22;10973;46.706;12.340;2023-05-10T00:46:33;9.30;99.90
21622;DHT22;10973;46.706;12.340;2023-05-10T00:49:01;9.30;99.90
21622;DHT22;10973;46.706;12.340;2023-05-10T00:51:29;9.20;99.90
21622;DHT22;10973;46.706;12.340;2023-05-10T00:53:56;9.30;99.90
21622;DHT22;10973;46.706;12.340;2023-05-10T00:56:25;9.30;99.90
21622;DHT22;10973;46.706;12.340;2023-05-10T00:58:54;9.30;99.90
21622;DHT22;10973;46.706;12.340;2023-05-10T01:01:22;9.20;99.90
21622;DHT22;10973;46.706;12.340;2023-05-10T01:03:49;9.10;99.90
21622;DHT22;10973;46.706;12.340;2023-05-10T01:06:17;9.10;99.90
21622;DHT22;10973;46.706;12.340;2023-05-10T01:08:45;9.00;99.90
21622;DHT22;10973;46.706;12.340;2023-05-10T01:11:12;9.10;99.90
21622;DHT22;10973;46.706;12.340;2023-05-10T01:13:42;9.10;99.90
21622;DHT22;10973;46.706;12.340;2023-05-10T01:16:13;9.10;99.90
21622;DHT22;10973;46.706;12.340;2023-05-10T01:18:41;9.10;99.90
21622;DHT22;10973;46.706;12.340;2023-05-10T01:24:43;9.10;99.90
21622;DHT22;10973;46.706;12.340;2023-05-10T01:33:17;9.10;99.90
21622;DHT22;10973;46.706;12.340;2023-05-10T01:36:13;9.10;99.90
21622;DHT22;10973;46.706;12.340;2023-05-10T01:39:08;9.00;99.90
21622;DHT22;10973;46.706;12.340;2023-05-10T01:44:42;9.00;99.90
21622;DHT22;10973;46.706;12.340;2023-05-10T01:47:20;8.90;99.90
21622;DHT22;10973;46.706;12.340;2023-05-10T01:49:59;9.00;99.90
21622;DHT22;10973;46.706;12.340;2023-05-10T01:52:42;9.00;99.90
21622;DHT22;10973;46.706;12.340;2023-05-10T01:55:15;9.10;99.90
21622;DHT22;10973;46.706;12.340;2023-05-10T01:57:46;9.00;99.90
21622;DHT22;10973;46.706;12.340;2023-05-10T02:00:18;9.00;99.90
21622;DHT22;10973;46.706;12.340;2023-05-10T02:02:48;8.90;99.90
21622;DHT22;10973;46.706;12.340;2023-05-10T02:05:18;8.90;99.90
21622;DHT22;10973;46.706;12.340;2023-05-10T02:07:47;8.90;99.90
21622;DHT22;10973;46.706;12.340;2023-05-10T02:10:17;8.90;99.90
21622;DHT22;10973;46.706;12.340;2023-05-10T02:12:48;8.90;99.90
21622;DHT22;10973;46.706;12.340;2023-05-10T02:15:21;8.90;99.90
21622;DHT22;10973;46.706;12.340;2023-05-10T02:17:52;8.90;99.90
21622;DHT22;10973;46.706;12.340;2023-05-10T02:20:23;8.90;99.90
21622;DHT22;10973;46.706;12.340;2023-05-10T02:22:55;8.90;99.90
21622;DHT22;10973;46.706;12.340;2023-05-10T02:25:25;8.90;99.90
21622;DHT22;10973;46.706;12.340;2023-05-10T02:27:55;8.90;99.90
21622;DHT22;10973;46.706;12.340;2023-05-10T02:30:24;8.90;99.90
21622;DHT22;10973;46.706;12.340;2023-05-10T02:32:53;8.80;99.90
21622;DHT22;10973;46.706;12.340;2023-05-10T02:35:22;8.80;99.90
21622;DHT22;10973;46.706;12.340;2023-05-10T02:37:50;8.80;99.90
21622;DHT22;10973;46.706;12.340;2023-05-10T02:40:19;8.90;99.90
21622;DHT22;10973;46.706;12.340;2023-05-10T02:42:52;8.80;99.90
21622;DHT22;10973;46.706;12.340;2023-05-10T02:45:25;8.80;99.90
21622;DHT22;10973;46.706;12.340;2023-05-10T02:47:57;8.80;99.90
21622;DHT22;10973;46.706;12.340;2023-05-10T02:50:27;8.80;99.90
21622;DHT22;10973;46.706;12.340;2023-05-10T02:53:01;8.80;99.90
21622;DHT22;10973;46.706;12.340;2023-05-10T02:55:36;8.80;99.90
21622;DHT22;10973;46.706;12.340;2023-05-10T02:58:07;8.80;99.90
21622;DHT22;10973;46.706;12.340;2023-05-10T03:00:34;8.80;99.90
21622;DHT22;10973;46.706;12.340;2023-05-10T03:03:02;8.70;99.90
21622;DHT22;10973;46.706;12.340;2023-05-10T03:05:29;8.70;99.90
21622;DHT22;10973;46.706;12.340;2023-05-10T03:07:56;8.80;99.90
21622;DHT22;10973;46.706;12.340;2023-05-10T03:10:27;8.70;99.90
21622;DHT22;10973;46.706;12.340;2023-05-10T03:15:59;8.70;99.90
21622;DHT22;10973;46.706;12.340;2023-05-10T03:21:11;8.60;99.90
21622;DHT22;10973;46.706;12.340;2023-05-10T03:23:53;8.60;99.90
21622;DHT22;10973;46.706;12.340;2023-05-10T03:26:35;8.60;99.90
21622;DHT22;10973;46.706;12.340;2023-05-10T03:29:05;8.70;99.90
21622;DHT22;10973;46.706;12.340;2023-05-10T03:31:34;8.60;99.90
21622;DHT22;10973;46.706;12.340;2023-05-10T03:34:02;8.60;99.90
21622;DHT22;10973;46.706;12.340;2023-05-10T03:36:29;8.60;99.90
21622;DHT22;10973;46.706;12.340;2023-05-10T03:38:57;8.50;99.90
21622;DHT22;10973;46.706;12.340;2023-05-10T03:41:24;8.50;99.90
21622;DHT22;10973;46.706;12.340;2023-05-10T03:43:51;8.50;99.90
21622;DHT22;10973;46.706;12.340;2023-05-10T03:46:19;8.50;99.90
21622;DHT22;10973;46.706;12.340;2023-05-10T03:48:46;8.50;99.90
21622;DHT22;10973;46.706;12.340;2023-05-10T03:51:13;8.50;99.90
21622;DHT22;10973;46.706;12.340;2023-05-10T03:53:41;8.50;99.90
21622;DHT22;10973;46.706;12.340;2023-05-10T03:56:08;8.40;99.90
21622;DHT22;10973;46.706;12.340;2023-05-10T03:58:35;8.40;99.90
21622;DHT22;10973;46.706;12.340;2023-05-10T04:01:03;8.50;99.90
21622;DHT22;10973;46.706;12.340;2023-05-10T04:03:30;8.50;99.90
21622;DHT22;10973;46.706;12.340;2023-05-10T04:06:01;8.50;99.90
21622;DHT22;10973;46.706;12.340;2023-05-10T04:08:29;8.50;99.90
21622;DHT22;10973;46.706;12.340;2023-05-10T04:11:09;8.50;99.90
21622;DHT22;10973;46.706;12.340;2023-05-10T04:13:38;8.50;99.90
21622;DHT22;10973;46.706;12.340;2023-05-10T04:16:05;8.40;99.90
21622;DHT22;10973;46.706;12.340;2023-05-10T04:18:33;8.40;99.90
21622;DHT22;10973;46.706;12.340;2023-05-10T04:21:00;8.50;99.90
21622;DHT22;10973;46.706;12.340;2023-05-10T04:23:28;8.50;99.90
21622;DHT22;10973;46.706;12.340;2023-05-10T04:26:02;8.40;99.90
21622;DHT22;10973;46.706;12.340;2023-05-10T04:28:30;8.40;99.90
21622;DHT22;10973;46.706;12.340;2023-05-10T04:31:07;8.40;99.90
21622;DHT22;10973;46.706;12.340;2023-05-10T04:33:36;8.40;99.90
21622;DHT22;10973;46.706;12.340;2023-05-10T04:36:04;8.30;99.90
21622;DHT22;10973;46.706;12.340;2023-05-10T04:38:31;8.40;99.90
21622;DHT22;10973;46.706;12.340;2023-05-10T04:41:06;8.40;99.90
21622;DHT22;10973;46.706;12.340;2023-05-10T04:43:35;8.40;99.90
21622;DHT22;10973;46.706;12.340;2023-05-10T04:46:04;8.40;99.90
21622;DHT22;10973;46.706;12.340;2023-05-10T04:48:32;8.40;99.90
21622;DHT22;10973;46.706;12.340;2023-05-10T04:51:00;8.40;99.90
21622;DHT22;10973;46.706;12.340;2023-05-10T04:53:27;8.30;99.90
21622;DHT22;10973;46.706;12.340;2023-05-10T04:55:54;8.30;99.90
21622;DHT22;10973;46.706;12.340;2023-05-10T04:58:22;8.30;99.90
21622;DHT22;10973;46.706;12.340;2023-05-10T05:00:49;8.30;99.90
21622;DHT22;10973;46.706;12.340;2023-05-10T05:03:17;8.40;99.90
21622;DHT22;10973;46.706;12.340;2023-05-10T05:05:44;8.40;99.90
21622;DHT22;10973;46.706;12.340;2023-05-10T05:08:11;8.30;99.90
21622;DHT22;10973;46.706;12.340;2023-05-10T05:10:39;8.30;99.90
21622;DHT22;10973;46.706;12.340;2023-05-10T05:13:06;8.30;99.90
21622;DHT22;10973;46.706;12.340;2023-05-10T05:15:33;8.30;99.90
21622;DHT22;10973;46.706;12.340;2023-05-10T05:18:01;8.30;99.90
21622;DHT22;10973;46.706;12.340;2023-05-10T05:20:31;8.30;99.90
21622;DHT22;10973;46.706;12.340;2023-05-10T05:22:59;8.30;99.90
21622;DHT22;10973;46.706;12.340;2023-05-10T05:25:27;8.30;99.90
21622;DHT22;10973;46.706;12.340;2023-05-10T05:27:54;8.30;99.90
21622;DHT22;10973;46.706;12.340;2023-05-10T05:30:22;8.30;99.90
21622;DHT22;10973;46.706;12.340;2023-05-10T05:32:49;8.30;99.90
21622;DHT22;10973;46.706;12.340;2023-05-10T05:35:16;8.30;99.90
21622;DHT22;10973;46.706;12.340;2023-05-10T05:37:44;8.30;99.90
21622;DHT22;10973;46.706;12.340;2023-05-10T05:40:14;8.40;99.90
21622;DHT22;10973;46.706;12.340;2023-05-10T05:42:42;8.40;99.90
21622;DHT22;10973;46.706;12.340;2023-05-10T05:45:10;8.40;99.90
21622;DHT22;10973;46.706;12.340;2023-05-10T05:47:40;8.50;99.90
21622;DHT22;10973;46.706;12.340;2023-05-10T05:50:10;8.40;99.90
21622;DHT22;10973;46.706;12.340;2023-05-10T05:52:37;8.50;99.90
21622;DHT22;10973;46.706;12.340;2023-05-10T05:55:05;8.50;99.90
21622;DHT22;10973;46.706;12.340;2023-05-10T05:57:32;8.60;99.90
21622;DHT22;10973;46.706;12.340;2023-05-10T06:00:00;8.60;99.90
21622;DHT22;10973;46.706;12.340;2023-05-10T06:02:27;8.60;99.90
21622;DHT22;10973;46.706;12.340;2023-05-10T06:04:54;8.70;99.90
21622;DHT22;10973;46.706;12.340;2023-05-10T06:07:22;8.60;99.90
21622;DHT22;10973;46.706;12.340;2023-05-10T06:09:49;8.60;99.90
21622;DHT22;10973;46.706;12.340;2023-05-10T06:12:17;8.60;99.90
21622;DHT22;10973;46.706;12.340;2023-05-10T06:14:44;8.60;99.90
21622;DHT22;10973;46.706;12.340;2023-05-10T06:17:11;8.60;99.90
21622;DHT22;10973;46.706;12.340;2023-05-10T06:19:39;8.70;99.90
21622;DHT22;10973;46.706;12.340;2023-05-10T06:22:07;8.70;99.90
21622;DHT22;10973;46.706;12.340;2023-05-10T06:24:34;8.70;99.90
21622;DHT22;10973;46.706;12.340;2023-05-10T06:27:01;8.80;99.90
21622;DHT22;10973;46.706;12.340;2023-05-10T06:29:28;8.70;99.90
21622;DHT22;10973;46.706;12.340;2023-05-10T06:31:56;8.70;99.90
21622;DHT22;10973;46.706;12.340;2023-05-10T06:34:24;8.70;99.90
21622;DHT22;10973;46.706;12.340;2023-05-10T06:36:51;8.60;99.90
21622;DHT22;10973;46.706;12.340;2023-05-10T06:39:19;8.60;99.90
21622;DHT22;10973;46.706;12.340;2023-05-10T06:41:46;8.60;99.90
21622;DHT22;10973;46.706;12.340;2023-05-10T06:44:14;8.60;99.90
21622;DHT22;10973;46.706;12.340;2023-05-10T06:46:41;8.50;99.90
21622;DHT22;10973;46.706;12.340;2023-05-10T06:49:09;8.60;99.90
21622;DHT22;10973;46.706;12.340;2023-05-10T06:51:36;8.70;99.90
21622;DHT22;10973;46.706;12.340;2023-05-10T06:54:03;8.50;99.90
21622;DHT22;10973;46.706;12.340;2023-05-10T06:56:30;8.40;99.90
21622;DHT22;10973;46.706;12.340;2023-05-10T06:58:58;8.50;99.90
21622;DHT22;10973;46.706;12.340;2023-05-10T07:01:25;8.60;99.90
21622;DHT22;10973;46.706;12.340;2023-05-10T07:03:53;8.60;99.90
21622;DHT22;10973;46.706;12.340;2023-05-10T07:06:20;8.60;99.90
21622;DHT22;10973;46.706;12.340;2023-05-10T07:08:59;8.70;99.90
21622;DHT22;10973;46.706;12.340;2023-05-10T07:11:27;8.70;99.90
21622;DHT22;10973;46.706;12.340;2023-05-10T07:13:54;8.80;99.90
21622;DHT22;10973;46.706;12.340;2023-05-10T07:16:22;8.80;99.90
21622;DHT22;10973;46.706;12.340;2023-05-10T07:18:49;8.70;99.90
21622;DHT22;10973;46.706;12.340;2023-05-10T07:21:16;8.70;99.90
21622;DHT22;10973;46.706;12.340;2023-05-10T07:23:44;8.70;99.90
21622;DHT22;10973;46.706;12.340;2023-05-10T07:26:11;8.70;99.90
21622;DHT22;10973;46.706;12.340;2023-05-10T07:28:39;8.70;99.90
21622;DHT22;10973;46.706;12.340;2023-05-10T07:31:06;8.60;99.90
21622;DHT22;10973;46.706;12.340;2023-05-10T07:33:34;8.80;99.90
21622;DHT22;10973;46.706;12.340;2023-05-10T07:36:01;8.80;99.90
21622;DHT22;10973;46.706;12.340;2023-05-10T07:38:28;8.80;99.90
21622;DHT22;10973;46.706;12.340;2023-05-10T07:40:56;8.90;99.90
21622;DHT22;10973;46.706;12.340;2023-05-10T07:43:23;8.90;99.90
21622;DHT22;10973;46.706;12.340;2023-05-10T07:45:50;8.80;99.90
21622;DHT22;10973;46.706;12.340;2023-05-10T07:48:21;8.80;99.90
21622;DHT22;10973;46.706;12.340;2023-05-10T07:50:49;8.80;99.90
21622;DHT22;10973;46.706;12.340;2023-05-10T07:53:16;8.80;99.90
21622;DHT22;10973;46.706;12.340;2023-05-10T07:55:49;8.50;99.90
21622;DHT22;10973;46.706;12.340;2023-05-10T07:58:17;8.90;99.90
21622;DHT22;10973;46.706;12.340;2023-05-10T08:00:45;8.90;99.90
21622;DHT22;10973;46.706;12.340;2023-05-10T08:03:12;8.90;99.90
21622;DHT22;10973;46.706;12.340;2023-05-10T08:05:40;8.90;99.90
21622;DHT22;10973;46.706;12.340;2023-05-10T08:08:07;8.80;99.90
21622;DHT22;10973;46.706;12.340;2023-05-10T08:10:34;8.80;99.90
21622;DHT22;10973;46.706;12.340;2023-05-10T08:13:02;8.70;99.90
21622;DHT22;10973;46.706;12.340;2023-05-10T08:15:29;8.80;99.90
21622;DHT22;10973;46.706;12.340;2023-05-10T08:17:57;8.90;99.90
21622;DHT22;10973;46.706;12.340;2023-05-10T08:20:24;8.80;99.90
21622;DHT22;10973;46.706;12.340;2023-05-10T08:22:51;8.90;99.90
21622;DHT22;10973;46.706;12.340;2023-05-10T08:25:19;8.90;99.90
21622;DHT22;10973;46.706;12.340;2023-05-10T08:27:47;8.90;99.90
21622;DHT22;10973;46.706;12.340;2023-05-10T08:30:14;8.90;99.90
21622;DHT22;10973;46.706;12.340;2023-05-10T08:32:42;9.00;99.90
21622;DHT22;10973;46.706;12.340;2023-05-10T08:35:09;8.90;99.90
21622;DHT22;10973;46.706;12.340;2023-05-10T08:37:37;8.90;99.90
21622;DHT22;10973;46.706;12.340;2023-05-10T08:40:06;8.90;99.90
21622;DHT22;10973;46.706;12.340;2023-05-10T08:42:36;9.00;99.90
21622;DHT22;10973;46.706;12.340;2023-05-10T08:45:10;9.00;99.90
21622;DHT22;10973;46.706;12.340;2023-05-10T08:47:39;9.10;99.90
21622;DHT22;10973;46.706;12.340;2023-05-10T08:50:07;9.10;99.90
21622;DHT22;10973;46.706;12.340;2023-05-10T08:52:38;9.10;99.90
21622;DHT22;10973;46.706;12.340;2023-05-10T08:55:07;9.20;99.90
21622;DHT22;10973;46.706;12.340;2023-05-10T08:57:36;9.10;99.90
21622;DHT22;10973;46.706;12.340;2023-05-10T09:00:03;9.10;99.90
21622;DHT22;10973;46.706;12.340;2023-05-10T09:02:32;9.10;99.90
21622;DHT22;10973;46.706;12.340;2023-05-10T09:05:00;9.10;99.90
21622;DHT22;10973;46.706;12.340;2023-05-10T09:07:28;9.10;99.90
21622;DHT22;10973;46.706;12.340;2023-05-10T09:09:56;9.10;99.90
21622;DHT22;10973;46.706;12.340;2023-05-10T09:12:24;9.10;99.90
21622;DHT22;10973;46.706;12.340;2023-05-10T09:14:52;9.00;99.90
21622;DHT22;10973;46.706;12.340;2023-05-10T09:17:23;9.00;99.90
21622;DHT22;10973;46.706;12.340;2023-05-10T09:20:02;8.90;99.90
21622;DHT22;10973;46.706;12.340;2023-05-10T09:22:31;8.90;99.90
21622;DHT22;10973;46.706;12.340;2023-05-10T09:27:45;8.70;99.90
21622;DHT22;10973;46.706;12.340;2023-05-10T09:30:29;8.80;99.90
21622;DHT22;10973;46.706;12.340;2023-05-10T09:32:59;8.70;99.90
21622;DHT22;10973;46.706;12.340;2023-05-10T09:35:29;8.70;99.90
21622;DHT22;10973;46.706;12.340;2023-05-10T09:38:02;8.70;99.90
21622;DHT22;10973;46.706;12.340;2023-05-10T09:40:31;8.70;99.90
21622;DHT22;10973;46.706;12.340;2023-05-10T09:43:01;8.80;99.90
21622;DHT22;10973;46.706;12.340;2023-05-10T09:45:32;8.80;99.90
21622;DHT22;10973;46.706;12.340;2023-05-10T09:48:05;8.80;99.90
21622;DHT22;10973;46.706;12.340;2023-05-10T09:50:33;8.70;99.90
21622;DHT22;10973;46.706;12.340;2023-05-10T09:53:02;8.70;99.90
21622;DHT22;10973;46.706;12.340;2023-05-10T09:55:44;8.80;99.90
21622;DHT22;10973;46.706;12.340;2023-05-10T09:58:13;8.70;99.90
21622;DHT22;10973;46.706;12.340;2023-05-10T10:00:42;8.50;99.90
21622;DHT22;10973;46.706;12.340;2023-05-10T10:03:16;8.60;99.90
21622;DHT22;10973;46.706;12.340;2023-05-10T10:05:46;8.50;99.90
21622;DHT22;10973;46.706;12.340;2023-05-10T10:08:15;8.50;99.90
21622;DHT22;10973;46.706;12.340;2023-05-10T10:10:42;8.60;99.90
21622;DHT22;10973;46.706;12.340;2023-05-10T10:13:10;8.50;99.90
21622;DHT22;10973;46.706;12.340;2023-05-10T10:15:38;8.40;99.90
21622;DHT22;10973;46.706;12.340;2023-05-10T10:18:06;8.50;99.90
21622;DHT22;10973;46.706;12.340;2023-05-10T10:20:39;8.50;99.90
21622;DHT22;10973;46.706;12.340;2023-05-10T10:23:08;8.50;99.90
21622;DHT22;10973;46.706;12.340;2023-05-10T10:25:35;8.50;99.90
21622;DHT22;10973;46.706;12.340;2023-05-10T10:28:21;8.50;99.90
21622;DHT22;10973;46.706;12.340;2023-05-10T10:30:55;8.50;99.90
21622;DHT22;10973;46.706;12.340;2023-05-10T10:33:33;8.50;99.90
21622;DHT22;10973;46.706;12.340;2023-05-10T10:36:08;8.50;99.90
21622;DHT22;10973;46.706;12.340;2023-05-10T10:38:59;8.50;99.90
21622;DHT22;10973;46.706;12.340;2023-05-10T10:41:30;8.50;99.90
